createdAt,value
2023-02-04T00:00:43.261Z,57.25
2023-02-04T00:05:44.926Z,57.38
2023-02-04T00:10:47.556Z,57.28
2023-02-04T00:15:49.261Z,57.67
2023-02-04T00:20:50.927Z,57.58
2023-02-04T00:25:52.518Z,57.80
2023-02-04T00:30:54.156Z,57.54
2023-02-04T00:35:56.321Z,57.59
2023-02-04T00:40:57.964Z,57.81
2023-02-04T00:45:59.663Z,57.75
2023-02-04T00:51:01.745Z,57.78
2023-02-04T00:56:03.347Z,57.71
2023-02-04T01:01:05.252Z,57.85
2023-02-04T01:06:06.944Z,57.69
2023-02-04T01:11:08.555Z,57.69
2023-02-04T01:16:10.732Z,57.75
2023-02-04T01:21:12.447Z,57.90
2023-02-04T01:26:14.010Z,57.52
2023-02-04T01:31:15.741Z,57.72
2023-02-04T01:36:21.728Z,57.82
2023-02-04T01:41:23.456Z,57.55
2023-02-04T01:46:25.149Z,57.85
2023-02-04T01:51:29.794Z,57.81
2023-02-04T01:56:31.437Z,57.31
2023-02-04T02:01:49.814Z,56.83
2023-02-04T02:06:58.778Z,56.51
2023-02-04T02:12:03.074Z,57.37
2023-02-04T02:17:04.774Z,57.05
2023-02-04T02:22:13.248Z,56.79
2023-02-04T02:27:14.975Z,56.98
2023-02-04T02:32:17.213Z,57.32
2023-02-04T02:37:19.077Z,57.28
2023-02-04T02:42:21.106Z,57.34
2023-02-04T02:47:23.681Z,57.31
2023-02-04T02:52:25.327Z,57.24
2023-02-04T02:57:27.018Z,57.09
2023-02-04T03:02:28.664Z,57.22
2023-02-04T03:07:30.327Z,57.25
2023-02-04T03:12:32.006Z,57.38
2023-02-04T03:17:34.339Z,57.40
2023-02-04T03:22:37.820Z,57.52
2023-02-04T03:27:39.476Z,58.01
2023-02-04T03:32:41.846Z,57.67
2023-02-04T03:37:44.087Z,57.25
2023-02-04T03:42:45.672Z,57.30
2023-02-04T03:47:47.461Z,57.38
2023-02-04T03:52:50.208Z,57.30
2023-02-04T03:57:52.635Z,57.23
2023-02-04T04:02:54.294Z,57.34
2023-02-04T04:07:56.158Z,57.28
2023-02-04T04:12:57.826Z,57.48
2023-02-04T04:17:59.433Z,57.32
2023-02-04T04:23:01.064Z,57.52
2023-02-04T04:28:02.740Z,58.01
2023-02-04T04:33:04.375Z,57.89
2023-02-04T04:38:05.958Z,57.93
2023-02-04T04:43:07.633Z,58.01
2023-02-04T04:48:09.233Z,58.19
2023-02-04T04:53:11.456Z,58.37
2023-02-04T04:58:13.076Z,58.60
2023-02-04T05:03:14.731Z,58.46
2023-02-04T05:08:17.096Z,58.71
2023-02-04T05:13:18.735Z,58.53
2023-02-04T05:18:20.325Z,58.56
2023-02-04T05:23:21.924Z,58.35
2023-02-04T05:28:23.581Z,58.57
2023-02-04T05:33:25.184Z,58.37
2023-02-04T05:38:26.760Z,58.54
2023-02-04T05:43:28.361Z,58.68
2023-02-04T05:48:30.099Z,58.54
2023-02-04T05:53:31.968Z,58.55
2023-02-04T05:58:33.736Z,58.58
2023-02-04T06:03:35.397Z,58.92
2023-02-04T06:08:37.076Z,58.68
2023-02-04T06:13:38.671Z,59.00
2023-02-04T06:18:40.280Z,59.07
2023-02-04T06:23:41.859Z,59.03
2023-02-04T06:28:43.429Z,59.33
2023-02-04T06:33:45.079Z,59.04
2023-02-04T06:38:46.709Z,59.31
2023-02-04T06:43:48.277Z,59.34
2023-02-04T06:48:49.857Z,59.10
2023-02-04T06:53:52.569Z,59.03
2023-02-04T06:58:54.183Z,59.22
2023-02-04T07:03:55.787Z,59.30
2023-02-04T07:08:57.406Z,59.40
2023-02-04T07:13:59.043Z,59.22
2023-02-04T07:19:00.656Z,59.22
2023-02-04T07:24:02.360Z,59.24
2023-02-04T07:29:03.975Z,59.33
2023-02-04T07:34:05.659Z,59.48
2023-02-04T07:39:07.849Z,59.47
2023-02-04T07:44:09.504Z,59.40
2023-02-04T07:49:11.353Z,59.42
2023-02-04T07:54:12.948Z,59.33
2023-02-04T07:59:14.528Z,59.22
2023-02-04T08:04:16.161Z,59.06
2023-02-04T08:09:17.775Z,58.98
2023-02-04T08:14:19.420Z,58.70
2023-02-04T08:19:21.603Z,58.58
2023-02-04T08:24:23.231Z,58.55
2023-02-04T08:29:25.838Z,58.52
2023-02-04T08:34:27.644Z,58.26
2023-02-04T08:39:29.674Z,57.75
2023-02-04T08:44:31.288Z,57.78
2023-02-04T08:49:32.889Z,57.70
2023-02-04T08:54:35.606Z,57.40
2023-02-04T08:59:37.183Z,57.11
2023-02-04T09:04:38.973Z,56.67
2023-02-04T09:09:40.568Z,56.21
2023-02-04T09:14:42.134Z,55.62
2023-02-04T09:19:43.796Z,55.15
2023-02-04T09:24:45.402Z,54.26
2023-02-04T09:29:46.988Z,53.95
2023-02-04T09:34:48.612Z,53.52
2023-02-04T09:39:50.212Z,53.93
2023-02-04T09:44:52.065Z,53.69
2023-02-04T09:49:53.698Z,53.01
2023-02-04T09:54:56.861Z,53.24
2023-02-04T09:59:58.828Z,52.10
2023-02-04T10:05:00.572Z,52.24
2023-02-04T10:10:03.428Z,51.99
2023-02-04T10:15:08.356Z,50.68
2023-02-04T10:20:17.606Z,49.51
2023-02-04T10:25:21.832Z,50.20
2023-02-04T10:30:27.687Z,50.21
2023-02-04T10:35:29.274Z,50.49
2023-02-04T10:40:34.263Z,50.65
2023-02-04T10:45:36.324Z,50.27
2023-02-04T10:50:39.040Z,50.33
2023-02-04T10:55:40.695Z,50.20
2023-02-04T11:00:42.513Z,49.35
2023-02-04T11:05:44.143Z,48.84
2023-02-04T11:10:45.759Z,48.38
2023-02-04T11:15:50.928Z,47.28
2023-02-04T11:20:56.332Z,47.69
2023-02-04T11:26:20.327Z,47.63
2023-02-04T11:31:21.990Z,47.79
2023-02-04T11:36:23.758Z,47.87
2023-02-04T11:41:29.960Z,47.40
2023-02-04T11:46:32.184Z,48.13
2023-02-04T11:51:34.740Z,48.38
2023-02-04T11:56:36.371Z,47.76
2023-02-04T12:01:38.328Z,47.82
2023-02-04T12:06:39.929Z,47.79
2023-02-04T12:11:56.041Z,46.98
2023-02-04T12:16:57.865Z,47.46
2023-02-04T12:21:59.476Z,46.03
2023-02-04T12:27:01.088Z,45.83
2023-02-04T12:32:02.752Z,45.64
2023-02-04T12:37:04.420Z,45.26
2023-02-04T12:42:06.065Z,44.92
2023-02-04T12:47:07.667Z,44.42
2023-02-04T12:52:09.637Z,42.77
2023-02-04T12:57:11.768Z,43.01
2023-02-04T13:02:13.547Z,42.89
2023-02-04T13:07:15.169Z,42.11
2023-02-04T13:12:16.824Z,42.32
2023-02-04T13:17:18.500Z,43.20
2023-02-04T13:22:20.143Z,43.46
2023-02-04T13:27:22.029Z,43.98
2023-02-04T13:32:23.641Z,44.41
2023-02-04T13:37:25.291Z,44.56
2023-02-04T13:42:27.249Z,44.06
2023-02-04T13:47:28.868Z,44.02
2023-02-04T13:52:30.532Z,44.38
2023-02-04T13:57:32.954Z,43.63
2023-02-04T14:02:34.631Z,43.07
2023-02-04T14:07:36.321Z,43.26
2023-02-04T14:12:37.910Z,42.49
2023-02-04T14:17:39.511Z,41.80
2023-02-04T14:22:41.184Z,42.01
2023-02-04T14:27:42.936Z,42.56
2023-02-04T14:32:44.643Z,43.11
2023-02-04T14:37:46.354Z,43.28
2023-02-04T14:42:48.091Z,43.71
2023-02-04T14:47:51.857Z,43.30
2023-02-04T14:52:54.168Z,42.24
2023-02-04T14:57:55.785Z,42.75
2023-02-04T15:02:57.382Z,42.44
2023-02-04T15:07:58.997Z,42.53
2023-02-04T15:13:00.611Z,42.00
2023-02-04T15:18:02.210Z,41.44
2023-02-04T15:23:03.866Z,41.28
2023-02-04T15:28:06.238Z,41.99
2023-02-04T15:33:07.907Z,42.28
2023-02-04T15:38:10.646Z,42.87
2023-02-04T15:43:12.248Z,43.96
2023-02-04T15:48:13.922Z,44.71
2023-02-04T15:53:15.567Z,45.06
2023-02-04T15:58:17.176Z,44.61
2023-02-04T16:03:18.884Z,44.03
2023-02-04T16:08:20.460Z,43.54
2023-02-04T16:13:22.098Z,44.71
2023-02-04T16:18:25.715Z,45.39
2023-02-04T16:23:27.332Z,46.35
2023-02-04T16:28:29.080Z,46.56
2023-02-04T16:33:30.788Z,47.17
2023-02-04T16:38:32.646Z,47.78
2023-02-04T16:43:34.339Z,48.34
2023-02-04T16:48:36.497Z,48.72
2023-02-04T16:53:38.154Z,49.62
2023-02-04T16:58:40.088Z,49.59
2023-02-04T17:03:42.376Z,49.62
2023-02-04T17:08:43.946Z,49.79
2023-02-04T17:13:45.595Z,50.45
2023-02-04T17:18:48.094Z,51.07
2023-02-04T17:23:50.565Z,51.52
2023-02-04T17:28:52.486Z,51.56
2023-02-04T17:33:54.111Z,51.88
2023-02-04T17:38:56.544Z,52.53
2023-02-04T17:43:59.119Z,52.89
2023-02-04T17:49:00.772Z,52.89
2023-02-04T17:54:02.385Z,53.52
2023-02-04T17:59:09.743Z,54.02
2023-02-04T18:04:14.256Z,54.42
2023-02-04T18:09:18.038Z,54.61
2023-02-04T18:14:27.791Z,55.13
2023-02-04T18:19:31.148Z,55.35
2023-02-04T18:24:40.040Z,55.78
2023-02-04T18:29:43.866Z,55.53
2023-02-04T18:34:48.102Z,56.50
2023-02-04T18:39:49.770Z,56.47
2023-02-04T18:44:52.599Z,56.59
2023-02-04T18:49:54.211Z,56.50
2023-02-04T18:54:58.979Z,56.33
2023-02-04T19:00:27.560Z,57.04
2023-02-04T19:05:33.274Z,57.04
2023-02-04T19:10:42.968Z,57.95
2023-02-04T19:15:49.958Z,57.95
2023-02-04T19:20:52.341Z,58.72
2023-02-04T19:25:54.205Z,59.04
2023-02-04T19:31:05.773Z,59.41
2023-02-04T19:36:33.849Z,59.26
2023-02-04T19:41:48.049Z,60.50
2023-02-04T19:46:49.648Z,60.11
2023-02-04T19:51:56.965Z,60.01
2023-02-04T19:56:58.560Z,60.14
2023-02-04T20:02:35.752Z,60.78
2023-02-04T20:07:38.102Z,60.18
2023-02-04T20:12:41.298Z,60.60
2023-02-04T20:17:49.938Z,61.33
2023-02-04T20:22:56.883Z,60.93
2023-02-04T20:28:03.215Z,61.23
2023-02-04T20:33:26.541Z,61.94
2023-02-04T20:38:30.140Z,61.73
2023-02-04T20:43:34.849Z,62.05
2023-02-04T20:48:40.969Z,62.16
2023-02-04T20:53:53.163Z,62.25
2023-02-04T20:59:16.500Z,62.08
2023-02-04T21:04:42.487Z,62.66
2023-02-04T21:09:45.493Z,62.48
2023-02-04T21:14:47.585Z,62.59
2023-02-04T21:19:49.243Z,62.92
2023-02-04T21:24:51.121Z,62.93
2023-02-04T21:29:53.195Z,63.20
2023-02-04T21:34:57.422Z,63.43
2023-02-04T21:39:59.554Z,63.31
2023-02-04T21:45:01.430Z,63.48
2023-02-04T21:50:03.610Z,63.60
2023-02-04T21:55:07.146Z,63.62
2023-02-04T22:00:09.763Z,63.87
2023-02-04T22:05:12.292Z,63.72
2023-02-04T22:10:17.518Z,64.09
2023-02-04T22:15:24.323Z,64.02
2023-02-04T22:20:26.068Z,63.87
2023-02-04T22:25:27.741Z,64.14
2023-02-04T22:30:29.463Z,64.29
2023-02-04T22:35:35.104Z,64.20
2023-02-04T22:40:37.111Z,64.21
2023-02-04T22:45:38.690Z,64.10
2023-02-04T22:50:40.275Z,64.65
2023-02-04T22:55:41.891Z,64.48
2023-02-04T23:00:44.522Z,64.66
2023-02-04T23:05:48.024Z,64.32
2023-02-04T23:10:49.716Z,64.15
2023-02-04T23:15:51.330Z,64.05
2023-02-04T23:20:52.938Z,64.23
2023-02-04T23:25:54.548Z,64.26
2023-02-04T23:30:56.537Z,64.27
2023-02-04T23:35:58.347Z,64.11
2023-02-04T23:41:00.279Z,64.27
2023-02-04T23:46:01.898Z,63.96
2023-02-04T23:51:03.833Z,64.21
2023-02-04T23:56:05.545Z,64.27
